Aeroporto :
LOGIN :

Iscrizione | Disclaimer

   EN    FR    IT 

 










Sommario :    VFR   VFR Marginale   IFR   IFR Intensivo   IFR Molto Intensivo
Visibilità : 
Base nubi : 
>= 8 km
>= 3000ft
5 / 8 km
1000 / 3000 ft
1500m / 5 km
500 / 1000 ft
800 / 1500m
200 / 500 ft
< 800m
< 200 ft
Simboli :   Temporali  Nebbia  Neve Forte  Precipitazioni Forti  Vento > 20 kt
SIGMETs :   Varie  Temporali  Ghiacco  Turbolenza  Onda orograficha  Ceneri Vulcaniche






- Altitudine del aeroporto : 1273 ft
- Codice IATA : LJU


LJLJ - Ljubljana

ULTIMO METAR :
  • 200500Z 26001KT 9999 FEW008 BKN170 M04/M06 Q1040 NOSIG

METARs OBSOLETI :
  • 200430Z 27001KT 9999 FEW008 BKN150 M05/M06 Q1039 R30/CLRD// NOSIG
  • 200400Z 30002KT 9999 FEW008 BKN150 M05/M06 Q1039 R30/CLRD// NOSIG
  • 200330Z VRB02KT 9999 MIFG FEW008 SCT180 M04/M05 Q1039 R30/CLRD// NOSIG
  • 200300Z 28002KT 9999 MIFG FEW008 SCT190 M05/M06 Q1038 NOSIG
  • 200230Z VRB01KT 9999 MIFG FEW008 SCT190 M06/M07 Q1038 NOSIG

TAF TAF LJLJ
Valido dal 20 a 03 ore il 21 a 03 ore UTC


200200Z 2003/2103 29003KT 9999 FEW030 SCT130
PROB40
TEMPO 2003/2007 3500 BR SCT013
BECMG 2011/2013 12005KT
TEMPO 2012/2021 BKN035
BECMG 2021/2024 7000 BKN020



MetMap, La meteo Aeronautica in un colpo d'occhio ! - Copyright ORBIFLY Dicembre 2007 - Disclaimer

ORBIFLY MET'MAP TEAM :

Programmazione e sviluppo : Alexandra Zaïnal
Concezione : Baudouin d'Aumeries
Aiuto per la programmazione : Marc-Olivier Méhu
Supporto tecnico e logistico : Manuel Goepfert
Aiuto per la traduzione : Arnaldo La Scala

Contatto : metmap@orbifly.com




FONTI E CREDITI :

   NOAA